createdAt,value
2023-01-18T00:01:03.484Z,15.13
2023-01-18T00:03:33.614Z,16.17
2023-01-18T00:06:01.629Z,14.93
2023-01-18T00:08:32.217Z,16.87
2023-01-18T00:11:06.974Z,15.23
2023-01-18T00:13:34.439Z,14.40
2023-01-18T00:16:08.942Z,14.97
2023-01-18T00:18:36.113Z,15.50
2023-01-18T00:21:07.593Z,15.87
2023-01-18T00:23:35.177Z,14.60
2023-01-18T00:26:03.014Z,15.90
2023-01-18T00:28:30.222Z,15.27
2023-01-18T00:30:57.426Z,15.13
2023-01-18T00:33:24.544Z,15.67
2023-01-18T00:35:57.690Z,15.53
2023-01-18T00:38:25.079Z,15.50
2023-01-18T00:40:52.218Z,15.20
2023-01-18T00:43:37.982Z,15.40
2023-01-18T00:46:05.998Z,15.07
2023-01-18T00:48:33.329Z,14.77
2023-01-18T00:51:00.500Z,14.27
2023-01-18T00:53:27.575Z,14.37
2023-01-18T00:55:54.681Z,14.77
2023-01-18T00:58:21.598Z,14.73
2023-01-18T01:00:50.478Z,15.33
2023-01-18T01:03:17.226Z,14.13
2023-01-18T01:06:05.072Z,14.73
2023-01-18T01:08:32.030Z,13.93
2023-01-18T01:11:08.138Z,14.20
2023-01-18T01:13:53.858Z,14.43
2023-01-18T01:16:40.757Z,14.80
2023-01-18T01:19:25.905Z,14.83
2023-01-18T01:22:11.487Z,13.93
2023-01-18T01:24:56.859Z,14.83
2023-01-18T01:27:23.515Z,14.47
2023-01-18T01:29:52.573Z,13.93
2023-01-18T01:32:19.271Z,15.43
2023-01-18T01:34:46.023Z,15.70
2023-01-18T01:37:12.758Z,14.13
2023-01-18T01:39:39.421Z,14.13
2023-01-18T01:42:06.091Z,12.93
2023-01-18T01:44:34.376Z,14.37
2023-01-18T01:47:11.306Z,13.83
2023-01-18T01:49:40.201Z,14.90
2023-01-18T01:52:13.433Z,14.97
2023-01-18T01:54:55.871Z,13.63
2023-01-18T01:57:30.560Z,13.17
2023-01-18T02:00:24.433Z,15.17
2023-01-18T02:02:59.194Z,14.10
2023-01-18T02:05:28.669Z,14.73
2023-01-18T02:08:01.232Z,13.70
2023-01-18T02:10:29.430Z,13.63
2023-01-18T02:12:58.902Z,13.53
2023-01-18T02:15:36.572Z,13.13
2023-01-18T02:18:46.668Z,13.30
2023-01-18T02:21:20.211Z,13.23
2023-01-18T02:24:24.534Z,12.77
2023-01-18T02:27:04.343Z,12.30
2023-01-18T02:29:45.999Z,12.50
2023-01-18T02:32:25.018Z,12.43
2023-01-18T02:35:00.779Z,13.80
2023-01-18T02:37:47.625Z,13.57
2023-01-18T02:40:14.237Z,12.97
2023-01-18T02:43:00.927Z,12.33
2023-01-18T02:46:02.606Z,12.63
2023-01-18T02:48:39.885Z,12.57
2023-01-18T02:51:07.193Z,14.20
2023-01-18T02:53:40.630Z,13.60
2023-01-18T02:56:29.705Z,12.73
2023-01-18T02:59:06.237Z,12.93
2023-01-18T03:01:55.611Z,12.83
2023-01-18T03:04:27.818Z,12.70
2023-01-18T03:07:02.184Z,12.27
2023-01-18T03:09:29.479Z,12.37
2023-01-18T03:11:58.878Z,12.87
2023-01-18T03:14:55.200Z,11.43
2023-01-18T03:17:26.987Z,12.07
2023-01-18T03:20:07.928Z,13.57
2023-01-18T03:23:17.572Z,11.67
2023-01-18T03:25:50.261Z,14.03
2023-01-18T03:28:53.308Z,11.53
2023-01-18T03:31:48.271Z,13.47
2023-01-18T03:34:26.697Z,12.83
2023-01-18T03:36:56.230Z,11.47
2023-01-18T03:39:48.888Z,11.90
2023-01-18T03:42:21.517Z,12.57
2023-01-18T03:44:54.649Z,12.43
2023-01-18T03:47:21.717Z,12.70
2023-01-18T03:49:48.939Z,12.87
2023-01-18T03:52:37.550Z,13.67
2023-01-18T03:55:07.203Z,12.83
2023-01-18T03:57:44.447Z,12.57
2023-01-18T04:00:13.651Z,12.60
2023-01-18T04:02:40.573Z,13.27
2023-01-18T04:05:07.630Z,12.33
2023-01-18T04:07:34.685Z,13.37
2023-01-18T04:10:02.027Z,13.37
2023-01-18T04:12:28.991Z,11.97
2023-01-18T04:14:56.081Z,12.93
2023-01-18T04:17:23.167Z,12.30
2023-01-18T04:19:50.259Z,12.50
2023-01-18T04:22:17.427Z,12.27
2023-01-18T04:24:44.613Z,13.20
2023-01-18T04:27:11.795Z,13.80
2023-01-18T04:29:38.934Z,13.40
2023-01-18T04:32:06.218Z,13.97
2023-01-18T04:34:33.659Z,12.40
2023-01-18T04:37:00.755Z,12.77
2023-01-18T04:39:27.842Z,12.17
2023-01-18T04:41:57.129Z,13.60
2023-01-18T04:44:24.390Z,12.73
2023-01-18T04:46:51.719Z,13.03
2023-01-18T04:49:18.851Z,12.97
2023-01-18T04:51:46.679Z,12.33
2023-01-18T04:54:14.764Z,12.67
2023-01-18T04:56:42.107Z,12.97
2023-01-18T04:59:11.082Z,12.87
2023-01-18T05:01:38.613Z,13.33
2023-01-18T05:04:05.807Z,13.20
2023-01-18T05:06:33.031Z,12.23
2023-01-18T05:09:00.223Z,13.07
2023-01-18T05:11:27.326Z,13.63
2023-01-18T05:13:54.423Z,15.40
2023-01-18T05:16:23.688Z,13.87
2023-01-18T05:18:51.334Z,14.43
2023-01-18T05:21:18.452Z,14.20
2023-01-18T05:23:45.603Z,13.57
2023-01-18T05:26:15.907Z,15.67
2023-01-18T05:28:43.362Z,15.43
2023-01-18T05:31:10.535Z,14.73
2023-01-18T05:33:37.746Z,14.43
2023-01-18T05:36:04.899Z,13.87
2023-01-18T05:38:32.166Z,14.47
2023-01-18T05:40:59.260Z,14.73
2023-01-18T05:43:29.103Z,14.47
2023-01-18T05:45:56.540Z,14.53
2023-01-18T05:48:24.043Z,15.13
2023-01-18T05:50:51.218Z,14.47
2023-01-18T05:53:19.800Z,15.07
2023-01-18T05:55:57.164Z,15.77
2023-01-18T05:58:24.345Z,14.77
2023-01-18T06:00:51.559Z,15.07
2023-01-18T06:03:20.168Z,16.07
2023-01-18T06:05:48.133Z,14.67
2023-01-18T06:08:15.953Z,15.03
2023-01-18T06:10:43.722Z,14.57
2023-01-18T06:13:11.044Z,15.53
2023-01-18T06:15:38.144Z,14.90
2023-01-18T06:18:05.354Z,15.63
2023-01-18T06:20:32.636Z,14.30
2023-01-18T06:23:00.168Z,15.93
2023-01-18T06:25:27.428Z,14.63
2023-01-18T06:27:54.576Z,14.13
2023-01-18T06:30:22.100Z,14.67
2023-01-18T06:32:49.809Z,15.33
2023-01-18T06:35:16.984Z,14.60
2023-01-18T06:37:46.081Z,15.03
2023-01-18T06:40:13.736Z,15.60
2023-01-18T06:42:41.316Z,14.83
2023-01-18T06:45:08.675Z,14.67
2023-01-18T06:47:35.858Z,14.60
2023-01-18T06:50:03.218Z,13.93
2023-01-18T06:52:30.356Z,14.20
2023-01-18T06:54:57.701Z,12.70
2023-01-18T06:57:24.887Z,13.10
2023-01-18T06:59:53.261Z,13.60
2023-01-18T07:02:21.054Z,13.33
2023-01-18T07:04:48.429Z,14.20
2023-01-18T07:07:15.699Z,14.50
2023-01-18T07:09:42.807Z,13.20
2023-01-18T07:12:09.981Z,14.63
2023-01-18T07:14:37.124Z,15.03
2023-01-18T07:17:04.773Z,14.63
2023-01-18T07:19:31.831Z,15.03
2023-01-18T07:21:59.697Z,13.93
2023-01-18T07:24:27.184Z,14.43
2023-01-18T07:26:54.800Z,15.23
2023-01-18T07:29:22.482Z,17.23
2023-01-18T07:31:49.657Z,13.97
2023-01-18T07:34:16.786Z,14.97
2023-01-18T07:36:44.632Z,15.77
2023-01-18T07:39:12.625Z,14.83
2023-01-18T07:41:39.865Z,15.30
2023-01-18T07:44:07.239Z,15.20
2023-01-18T07:46:34.469Z,13.30
2023-01-18T07:49:05.437Z,13.27
2023-01-18T07:51:33.347Z,14.80
2023-01-18T07:54:00.501Z,14.67
2023-01-18T07:56:27.840Z,14.80
2023-01-18T07:58:55.583Z,13.83
2023-01-18T08:01:23.702Z,13.40
2023-01-18T08:03:51.010Z,13.07
2023-01-18T08:06:25.754Z,14.40
2023-01-18T08:08:53.485Z,14.60
2023-01-18T08:11:20.683Z,14.67
2023-01-18T08:13:49.328Z,14.43
2023-01-18T08:16:17.732Z,15.37
2023-01-18T08:18:45.799Z,15.80
2023-01-18T08:21:13.481Z,15.07
2023-01-18T08:23:40.889Z,15.03
2023-01-18T08:26:08.914Z,14.90
2023-01-18T08:28:36.533Z,14.83
2023-01-18T08:31:11.607Z,14.60
2023-01-18T08:33:43.000Z,15.50
2023-01-18T08:36:11.626Z,15.90
2023-01-18T08:38:38.789Z,15.70
2023-01-18T08:41:05.977Z,15.63
2023-01-18T08:43:33.142Z,14.80
2023-01-18T08:46:00.640Z,15.60
2023-01-18T08:48:27.794Z,14.83
2023-01-18T08:50:54.867Z,13.37
2023-01-18T08:53:21.956Z,15.83
2023-01-18T08:55:49.473Z,15.90
2023-01-18T08:58:16.839Z,15.50
2023-01-18T09:00:43.971Z,16.30
2023-01-18T09:03:11.090Z,15.83
2023-01-18T09:05:40.251Z,15.73
2023-01-18T09:08:08.305Z,15.97
2023-01-18T09:10:37.445Z,16.43
2023-01-18T09:13:04.614Z,16.43
2023-01-18T09:15:31.727Z,16.37
2023-01-18T09:17:59.794Z,16.70
2023-01-18T09:20:27.627Z,15.87
2023-01-18T09:22:55.213Z,15.77
2023-01-18T09:25:22.276Z,15.33
2023-01-18T09:27:49.383Z,16.27
2023-01-18T09:30:16.658Z,16.50
2023-01-18T09:32:43.786Z,16.37
2023-01-18T09:35:10.951Z,14.70
2023-01-18T09:37:38.031Z,15.90
2023-01-18T09:40:05.351Z,17.03
2023-01-18T09:42:36.238Z,16.43
2023-01-18T09:45:04.146Z,15.50
2023-01-18T09:47:34.367Z,16.00
2023-01-18T09:50:03.551Z,16.13
2023-01-18T09:52:33.461Z,16.93
2023-01-18T09:55:05.353Z,16.57
2023-01-18T09:57:39.135Z,16.80
2023-01-18T10:00:16.568Z,15.83
2023-01-18T10:02:45.126Z,15.87
2023-01-18T10:05:13.872Z,16.40
2023-01-18T10:08:02.286Z,15.63
2023-01-18T10:10:52.732Z,16.43
2023-01-18T10:13:25.889Z,17.37
2023-01-18T10:15:53.122Z,16.83
2023-01-18T10:18:20.567Z,16.27
2023-01-18T10:20:58.529Z,16.57
2023-01-18T10:23:29.417Z,17.57
2023-01-18T10:25:57.650Z,17.90
2023-01-18T10:28:33.134Z,17.50
2023-01-18T10:31:03.827Z,17.53
2023-01-18T10:33:38.239Z,16.47
2023-01-18T10:36:24.596Z,17.13
2023-01-18T10:38:52.716Z,15.67
2023-01-18T10:41:32.082Z,17.13
2023-01-18T10:43:59.192Z,17.07
2023-01-18T10:46:26.323Z,15.97
2023-01-18T10:48:54.391Z,17.60
2023-01-18T10:51:26.106Z,17.33
2023-01-18T10:53:53.214Z,17.20
2023-01-18T10:56:24.254Z,17.87
2023-01-18T10:58:51.373Z,17.20
2023-01-18T11:01:19.712Z,17.53
2023-01-18T11:03:51.461Z,16.97
2023-01-18T11:06:20.645Z,18.00
2023-01-18T11:08:48.544Z,17.40
2023-01-18T11:11:15.602Z,18.17
2023-01-18T11:13:44.278Z,17.33
2023-01-18T11:16:19.139Z,17.50
2023-01-18T11:18:59.984Z,17.43
2023-01-18T11:21:31.508Z,17.80
2023-01-18T11:23:59.031Z,17.03
2023-01-18T11:26:28.189Z,18.70
2023-01-18T11:28:58.431Z,18.63
2023-01-18T11:31:26.925Z,16.33
2023-01-18T11:34:02.729Z,16.57
2023-01-18T11:36:40.038Z,16.93
2023-01-18T11:39:19.690Z,17.33
2023-01-18T11:41:46.770Z,15.30
2023-01-18T11:44:23.126Z,14.90
2023-01-18T11:46:58.891Z,15.83
2023-01-18T11:49:44.908Z,15.60
2023-01-18T11:52:35.314Z,15.97
2023-01-18T11:55:04.999Z,16.20
2023-01-18T11:57:32.166Z,16.07
2023-01-18T11:59:59.773Z,16.53
2023-01-18T12:02:39.058Z,16.47
2023-01-18T12:05:18.390Z,17.03
2023-01-18T12:07:51.288Z,17.17
2023-01-18T12:10:23.449Z,16.30
2023-01-18T12:13:02.548Z,15.80
2023-01-18T12:15:47.777Z,18.13
2023-01-18T12:18:24.110Z,16.40
2023-01-18T12:21:09.133Z,16.87
2023-01-18T12:23:54.885Z,16.73
2023-01-18T12:26:31.180Z,17.63
2023-01-18T12:29:01.290Z,18.27
2023-01-18T12:31:46.720Z,17.17
2023-01-18T12:34:20.528Z,16.83
2023-01-18T12:36:53.715Z,17.90
2023-01-18T12:39:46.869Z,16.63
2023-01-18T12:42:23.813Z,15.63
2023-01-18T12:45:03.569Z,15.87
2023-01-18T12:47:35.055Z,16.37
2023-01-18T12:50:13.838Z,16.70
2023-01-18T12:52:46.225Z,15.00
2023-01-18T12:55:16.636Z,17.03
2023-01-18T12:57:46.403Z,15.93
2023-01-18T13:00:18.011Z,15.97
2023-01-18T13:02:48.028Z,14.60
2023-01-18T13:05:24.323Z,14.80
2023-01-18T13:07:55.645Z,13.40
2023-01-18T13:10:27.507Z,14.80
2023-01-18T13:12:55.911Z,14.63
2023-01-18T13:15:38.248Z,14.10
2023-01-18T13:18:11.189Z,14.83
2023-01-18T13:20:38.425Z,14.23
2023-01-18T13:23:22.071Z,13.37
2023-01-18T13:25:57.706Z,14.43
2023-01-18T13:28:25.881Z,14.40
2023-01-18T13:31:01.834Z,14.00
2023-01-18T13:33:36.919Z,13.47
2023-01-18T13:36:11.872Z,13.83
2023-01-18T13:38:50.594Z,13.77
2023-01-18T13:41:22.011Z,12.90
2023-01-18T13:43:52.733Z,13.57
2023-01-18T13:46:21.512Z,12.70
2023-01-18T13:48:58.932Z,13.07
2023-01-18T13:51:40.959Z,13.07
2023-01-18T13:54:08.039Z,12.30
2023-01-18T13:56:39.010Z,12.00
2023-01-18T13:59:19.419Z,11.63
2023-01-18T14:01:48.829Z,11.20
2023-01-18T14:04:24.070Z,11.57
2023-01-18T14:06:51.822Z,11.23
2023-01-18T14:09:19.738Z,11.80
2023-01-18T14:11:54.252Z,11.27
2023-01-18T14:14:21.280Z,11.03
2023-01-18T14:17:07.092Z,10.50
2023-01-18T14:19:57.435Z,10.40
2023-01-18T14:22:37.831Z,9.77
2023-01-18T14:25:17.112Z,9.50
2023-01-18T14:27:46.167Z,8.80
2023-01-18T14:30:27.289Z,10.10
2023-01-18T14:33:02.652Z,10.37
2023-01-18T14:35:29.972Z,9.07
2023-01-18T14:38:18.272Z,10.77
2023-01-18T14:40:50.390Z,11.50
2023-01-18T14:43:29.225Z,8.90
2023-01-18T14:46:01.406Z,9.07
2023-01-18T14:48:30.831Z,9.20
2023-01-18T14:50:59.541Z,8.77
2023-01-18T14:53:29.324Z,8.60
2023-01-18T14:56:14.773Z,9.00
2023-01-18T14:58:43.214Z,8.73
2023-01-18T15:01:24.731Z,9.30
2023-01-18T15:03:56.200Z,8.97
2023-01-18T15:06:44.455Z,8.17
2023-01-18T15:09:12.575Z,7.93
2023-01-18T15:11:40.664Z,9.10
2023-01-18T15:14:15.343Z,8.30
2023-01-18T15:16:43.048Z,8.07
2023-01-18T15:19:14.644Z,8.40
2023-01-18T15:21:43.056Z,9.03
2023-01-18T15:24:13.424Z,8.40
2023-01-18T15:26:43.283Z,8.83
2023-01-18T15:29:21.362Z,8.73
2023-01-18T15:31:52.797Z,8.93
2023-01-18T15:34:24.107Z,8.77
2023-01-18T15:36:51.532Z,10.00
2023-01-18T15:39:18.612Z,8.90
2023-01-18T15:41:45.981Z,9.83
2023-01-18T15:44:29.371Z,9.93
2023-01-18T15:46:57.673Z,8.97
2023-01-18T15:49:25.012Z,9.17
2023-01-18T15:51:57.065Z,8.53
2023-01-18T15:54:26.991Z,8.53
2023-01-18T15:56:54.859Z,9.20
2023-01-18T15:59:22.976Z,8.77
2023-01-18T16:02:14.158Z,9.67
2023-01-18T16:04:41.342Z,10.10
2023-01-18T16:07:43.689Z,10.63
2023-01-18T16:10:10.813Z,9.43
2023-01-18T16:12:37.933Z,9.67
2023-01-18T16:15:05.142Z,10.30
2023-01-18T16:17:32.893Z,9.80
2023-01-18T16:20:01.154Z,10.67
2023-01-18T16:22:46.836Z,10.90
2023-01-18T16:25:19.689Z,10.17
2023-01-18T16:27:48.436Z,11.17
2023-01-18T16:30:26.681Z,10.90
2023-01-18T16:32:53.820Z,11.13
2023-01-18T16:35:22.087Z,10.90
2023-01-18T16:37:49.709Z,10.83
2023-01-18T16:40:23.908Z,10.70
2023-01-18T16:42:59.655Z,10.33
2023-01-18T16:45:26.776Z,10.00
2023-01-18T16:47:53.896Z,11.20
2023-01-18T16:50:21.434Z,11.17
2023-01-18T16:52:48.707Z,10.50
2023-01-18T16:55:16.550Z,12.30
2023-01-18T16:57:44.032Z,10.90
2023-01-18T17:00:24.508Z,11.20
2023-01-18T17:02:53.189Z,11.43
2023-01-18T17:05:20.800Z,10.50
2023-01-18T17:07:48.097Z,9.77
2023-01-18T17:10:22.132Z,9.73
2023-01-18T17:12:49.243Z,10.43
2023-01-18T17:15:17.105Z,9.83
2023-01-18T17:17:45.330Z,10.67
2023-01-18T17:20:19.726Z,10.27
2023-01-18T17:22:47.121Z,11.93
2023-01-18T17:25:14.327Z,10.53
2023-01-18T17:27:41.591Z,10.87
2023-01-18T17:30:10.344Z,11.20
2023-01-18T17:32:37.518Z,11.60
2023-01-18T17:35:05.764Z,10.80
2023-01-18T17:37:34.161Z,10.50
2023-01-18T17:40:16.401Z,11.33
2023-01-18T17:42:47.076Z,11.43
2023-01-18T17:45:14.430Z,11.73
2023-01-18T17:47:42.645Z,11.87
2023-01-18T17:50:15.516Z,11.50
2023-01-18T17:52:42.630Z,10.67
2023-01-18T17:55:12.173Z,10.37
2023-01-18T17:57:40.179Z,10.63
2023-01-18T18:00:08.172Z,11.30
2023-01-18T18:02:35.528Z,10.47
2023-01-18T18:05:03.034Z,10.33
2023-01-18T18:07:30.536Z,10.73
2023-01-18T18:10:00.929Z,12.23
2023-01-18T18:12:29.176Z,10.47
2023-01-18T18:14:56.305Z,10.67
2023-01-18T18:17:24.734Z,10.77
2023-01-18T18:19:51.891Z,10.40
2023-01-18T18:22:19.862Z,10.87
2023-01-18T18:24:47.897Z,10.43
2023-01-18T18:27:15.387Z,10.20
2023-01-18T18:29:42.433Z,9.50
2023-01-18T18:32:09.550Z,10.73
2023-01-18T18:34:37.289Z,10.37
2023-01-18T18:37:05.190Z,10.00
2023-01-18T18:39:32.672Z,9.43
2023-01-18T18:41:59.809Z,10.40
2023-01-18T18:44:27.243Z,9.90
2023-01-18T18:46:54.330Z,9.23
2023-01-18T18:49:21.542Z,9.37
2023-01-18T18:51:48.628Z,9.03
2023-01-18T18:54:16.020Z,9.73
2023-01-18T18:56:43.389Z,8.03
2023-01-18T18:59:10.540Z,8.83
2023-01-18T19:01:37.754Z,8.97
2023-01-18T19:04:05.446Z,8.23
2023-01-18T19:06:32.892Z,9.40
2023-01-18T19:09:00.106Z,8.77
2023-01-18T19:11:27.273Z,7.53
2023-01-18T19:13:55.811Z,9.00
2023-01-18T19:16:23.138Z,8.07
2023-01-18T19:18:50.309Z,57.17
2023-01-18T19:21:18.359Z,14.67
2023-01-18T19:23:45.444Z,7.97
2023-01-18T19:26:12.896Z,8.03
2023-01-18T19:28:40.732Z,7.33
2023-01-18T19:31:08.443Z,7.83
2023-01-18T19:33:36.056Z,8.13
2023-01-18T19:36:10.645Z,7.60
2023-01-18T19:38:45.826Z,7.53
2023-01-18T19:41:13.872Z,7.97
2023-01-18T19:43:42.623Z,7.33
2023-01-18T19:46:10.757Z,7.40
2023-01-18T19:48:39.218Z,7.07
2023-01-18T19:51:20.696Z,7.10
2023-01-18T19:53:48.619Z,7.03
2023-01-18T19:56:15.668Z,7.00
2023-01-18T19:58:42.821Z,7.83
2023-01-18T20:01:10.933Z,6.97
2023-01-18T20:03:38.117Z,6.97
2023-01-18T20:06:12.381Z,6.23
2023-01-18T20:08:39.492Z,6.50
2023-01-18T20:11:07.528Z,5.93
2023-01-18T20:13:35.198Z,6.73
2023-01-18T20:16:02.444Z,6.60
2023-01-18T20:18:33.626Z,6.23
2023-01-18T20:21:10.914Z,6.50
2023-01-18T20:23:38.530Z,7.10
2023-01-18T20:26:06.182Z,6.40
2023-01-18T20:28:33.678Z,7.20
2023-01-18T20:31:02.955Z,6.60
2023-01-18T20:33:30.100Z,6.57
2023-01-18T20:35:57.242Z,6.67
2023-01-18T20:38:24.316Z,5.83
2023-01-18T20:40:51.804Z,6.00
2023-01-18T20:43:19.825Z,6.07
2023-01-18T20:45:46.988Z,6.57
2023-01-18T20:48:14.286Z,5.87
2023-01-18T20:50:41.587Z,5.53
2023-01-18T20:53:08.723Z,6.20
2023-01-18T20:55:37.999Z,6.00
2023-01-18T20:58:05.060Z,6.53
2023-01-18T21:00:32.427Z,6.70
2023-01-18T21:03:00.071Z,7.17
2023-01-18T21:05:27.388Z,5.73
2023-01-18T21:07:54.501Z,6.73
2023-01-18T21:10:21.596Z,6.17
2023-01-18T21:12:49.185Z,6.97
2023-01-18T21:15:16.519Z,6.97
2023-01-18T21:17:43.586Z,6.70
2023-01-18T21:20:11.100Z,7.57
2023-01-18T21:22:38.195Z,6.70
2023-01-18T21:25:05.437Z,7.43
2023-01-18T21:27:33.042Z,7.10
2023-01-18T21:30:00.220Z,7.97
2023-01-18T21:32:27.404Z,6.37
2023-01-18T21:34:54.471Z,7.27
2023-01-18T21:37:21.566Z,7.57
2023-01-18T21:39:48.687Z,7.50
2023-01-18T21:42:34.536Z,7.83
2023-01-18T21:45:20.424Z,7.37
2023-01-18T21:47:47.493Z,7.60
2023-01-18T21:50:33.295Z,8.30
2023-01-18T21:53:19.000Z,7.83
2023-01-18T21:55:47.330Z,7.43
2023-01-18T21:58:33.191Z,8.20
2023-01-18T22:01:00.561Z,7.47
2023-01-18T22:03:27.788Z,8.43
2023-01-18T22:05:54.911Z,8.20
2023-01-18T22:08:22.157Z,8.03
2023-01-18T22:10:49.503Z,7.87
2023-01-18T22:13:16.976Z,8.23
2023-01-18T22:15:44.097Z,8.10
2023-01-18T22:18:11.161Z,8.40
2023-01-18T22:20:38.284Z,7.27
2023-01-18T22:23:05.378Z,7.70
2023-01-18T22:25:32.456Z,7.53
2023-01-18T22:28:00.056Z,7.57
2023-01-18T22:30:28.467Z,7.60
2023-01-18T22:32:55.560Z,7.53
2023-01-18T22:35:22.683Z,8.00
2023-01-18T22:37:49.785Z,7.63
2023-01-18T22:40:17.050Z,7.63
2023-01-18T22:42:44.452Z,8.13
2023-01-18T22:45:11.844Z,8.30
2023-01-18T22:47:38.897Z,7.83
2023-01-18T22:50:06.221Z,9.27
2023-01-18T22:52:33.589Z,8.40
2023-01-18T22:55:00.833Z,9.20
2023-01-18T22:57:27.990Z,7.93
2023-01-18T22:59:55.106Z,7.63
2023-01-18T23:02:22.276Z,8.40
2023-01-18T23:04:49.431Z,7.93
2023-01-18T23:07:17.406Z,7.53
2023-01-18T23:09:44.510Z,7.87
2023-01-18T23:12:11.624Z,8.77
2023-01-18T23:14:57.497Z,8.80
2023-01-18T23:17:40.022Z,7.97
2023-01-18T23:20:08.138Z,8.93
2023-01-18T23:22:35.210Z,8.80
2023-01-18T23:25:02.801Z,8.93
2023-01-18T23:27:30.013Z,8.37
2023-01-18T23:29:57.328Z,9.57
2023-01-18T23:32:27.962Z,9.77
2023-01-18T23:34:55.438Z,9.13
2023-01-18T23:37:22.531Z,8.97
2023-01-18T23:40:08.454Z,9.73
2023-01-18T23:42:54.259Z,9.83
2023-01-18T23:45:40.310Z,9.57
2023-01-18T23:48:31.366Z,10.03
2023-01-18T23:51:17.412Z,10.20
2023-01-18T23:54:03.326Z,10.37
2023-01-18T23:56:30.548Z,9.73
2023-01-18T23:58:57.838Z,10.00
